Time;durP1;ratioP1;P1;durP2;ratioP2;P2;SDS_P1;SDS_P2;PMS_P1;PMS_P2;Temp;Humidity;BMP_temperature;BMP_pressure;BME280_temperature;BME280_humidity;BME280_pressure;Samples;Min_cycle;Max_cycle;Signal;HPM_P1;HPM_P2
2022/06/15 00:00:33;;;;;;;4.68;2.00;;;12.30;99.90;;;;;;5073172;28;20123;-68
2022/06/15 00:02:59;;;;;;;2.22;1.67;;;12.30;99.90;;;;;;5056572;28;20040;-69
2022/06/15 00:05:25;;;;;;;3.42;1.80;;;12.60;99.90;;;;;;5073279;28;20407;-69
2022/06/15 00:07:52;;;;;;;4.07;2.30;;;12.40;99.90;;;;;;5056543;28;20047;-69
2022/06/15 00:10:18;;;;;;;3.15;1.75;;;12.30;99.90;;;;;;5056917;28;20047;-69
2022/06/15 00:12:44;;;;;;;3.08;1.77;;;12.30;99.90;;;;;;5073705;28;20109;-69
2022/06/15 00:15:10;;;;;;;2.70;1.70;;;12.30;99.90;;;;;;5056458;28;20064;-69
2022/06/15 00:17:36;;;;;;;6.07;1.90;;;12.30;99.90;;;;;;5073099;28;20090;-69
2022/06/15 00:20:02;;;;;;;2.45;1.65;;;12.20;99.90;;;;;;5072961;28;20059;-69
2022/06/15 00:22:28;;;;;;;2.10;1.45;;;12.20;99.90;;;;;;5056319;28;20416;-69
2022/06/15 00:24:54;;;;;;;3.90;1.75;;;12.40;99.90;;;;;;5072970;28;20125;-69
2022/06/15 00:27:19;;;;;;;3.88;1.83;;;12.10;99.90;;;;;;5072838;28;20078;-68
2022/06/15 00:29:45;;;;;;;3.95;2.05;;;12.20;99.90;;;;;;5072760;28;20032;-68
2022/06/15 00:32:11;;;;;;;2.58;1.75;;;12.50;99.90;;;;;;5056149;28;20083;-69
2022/06/15 00:34:37;;;;;;;4.20;1.98;;;12.20;99.90;;;;;;5072518;28;20063;-69
2022/06/15 00:37:05;;;;;;;4.03;1.80;;;12.10;99.90;;;;;;5072558;28;20036;-69
2022/06/15 00:39:32;;;;;;;2.97;1.35;;;12.10;99.90;;;;;;5072933;28;20036;-69
2022/06/15 00:41:58;;;;;;;3.63;1.90;;;12.00;99.90;;;;;;5072697;28;20645;-69
2022/06/15 00:44:24;;;;;;;2.25;1.40;;;12.00;99.90;;;;;;5072488;28;20080;-69
2022/06/15 00:46:54;;;;;;;3.40;1.75;;;12.10;99.90;;;;;;5072285;28;20045;-69
2022/06/15 00:49:25;;;;;;;4.22;2.30;;;11.90;99.90;;;;;;5072432;28;20059;-69
2022/06/15 00:51:56;;;;;;;2.65;1.75;;;12.00;99.90;;;;;;5072216;28;20053;-69
2022/06/15 00:54:23;;;;;;;5.63;2.35;;;11.80;99.90;;;;;;5072242;28;20028;-70
2022/06/15 00:56:51;;;;;;;2.55;1.98;;;12.40;99.90;;;;;;5072131;28;20044;-69
2022/06/15 00:59:24;;;;;;;2.40;1.70;;;12.20;99.90;;;;;;5072543;28;20051;-68
2022/06/15 01:01:50;;;;;;;2.90;1.63;;;11.80;99.90;;;;;;5055516;28;20044;-69
2022/06/15 01:04:19;;;;;;;2.97;1.80;;;11.80;99.90;;;;;;5072084;28;20127;-69
2022/06/15 01:07:17;;;;;;;5.45;1.73;;;12.50;99.90;;;;;;5072123;28;20454;-69
2022/06/15 01:10:06;;;;;;;3.38;1.70;;;11.80;99.90;;;;;;5071783;28;20126;-70
2022/06/15 01:12:38;;;;;;;3.50;2.03;;;11.70;99.90;;;;;;5055049;28;20090;-70
2022/06/15 01:15:43;;;;;;;3.00;1.33;;;11.80;99.90;;;;;;5071902;28;20036;-69
2022/06/15 01:18:32;;;;;;;3.97;1.70;;;11.70;99.90;;;;;;5071209;28;20494;-69
2022/06/15 01:21:07;;;;;;;4.28;1.88;;;;;;;;;;5051292;28;20048;-69
2022/06/15 01:23:36;;;;;;;2.38;1.73;;;;;;;;;;5071711;28;20044;-69
2022/06/15 01:26:05;;;;;;;2.17;1.40;;;;;;;;;;5071858;28;20495;-68
2022/06/15 01:28:47;;;;;;;6.22;1.90;;;;;;;;;;5071916;28;20044;-68
2022/06/15 01:31:33;;;;;;;2.25;1.42;;;;;;;;;;5054808;28;20040;-69
2022/06/15 01:34:02;;;;;;;2.90;1.50;;;;;;;;;;5071890;28;20036;-69
2022/06/15 01:36:38;;;;;;;2.63;1.50;;;11.80;99.90;;;;;;5071658;28;20076;-68
2022/06/15 01:39:04;;;;;;;4.43;1.90;;;;;;;;;;5054968;28;20090;-68
2022/06/15 01:41:51;;;;;;;4.50;1.98;;;;;;;;;;5071469;28;20458;-69
2022/06/15 01:44:32;;;;;;;3.58;2.00;;;;;;;;;;5071272;28;20134;-69
2022/06/15 01:47:01;;;;;;;3.63;1.35;;;;;;;;;;5071150;28;20480;-68
2022/06/15 01:49:30;;;;;;;4.15;1.83;;;;;;;;;;5071146;28;20055;-69
2022/06/15 01:51:58;;;;;;;3.65;1.92;;;;;;;;;;5071292;28;20102;-69
2022/06/15 01:54:27;;;;;;;3.03;1.58;;;;;;;;;;5071481;28;20032;-68
2022/06/15 01:56:56;;;;;;;2.95;2.03;;;;;;;;;;5071412;28;20043;-69
2022/06/15 01:59:41;;;;;;;2.65;1.63;;;;;;;;;;5071267;28;20064;-68
2022/06/15 02:02:13;;;;;;;4.05;2.28;;;;;;;;;;5054465;28;20089;-68
2022/06/15 02:05:01;;;;;;;1.98;1.02;;;;;;;;;;5070860;28;20045;-68
2022/06/15 02:07:30;;;;;;;3.45;1.75;;;;;;;;;;5071254;28;20408;-68
2022/06/15 02:10:01;;;;;;;1.83;1.27;;;;;;;;;;5071638;28;20396;-68
2022/06/15 02:12:41;;;;;;;1.95;1.42;;;;;;;;;;5071243;28;20041;-68
2022/06/15 02:15:08;;;;;;;3.95;1.63;;;;;;;;;;5054745;28;20036;-69
2022/06/15 02:17:40;;;;;;;4.43;2.03;;;;;;;;;;5071134;28;20041;-68
2022/06/15 02:20:10;;;;;;;3.30;1.65;;;;;;;;;;5071178;28;20040;-68
2022/06/15 02:22:39;;;;;;;2.90;1.95;;;;;;;;;;5070976;28;20044;-68
2022/06/15 02:25:09;;;;;;;2.60;1.67;;;;;;;;;;5071224;28;20094;-68
2022/06/15 02:27:36;;;;;;;2.85;1.55;;;;;;;;;;5071162;28;20044;-68
2022/06/15 02:30:07;;;;;;;5.45;1.58;;;;;;;;;;5054520;28;20075;-69
2022/06/15 02:32:36;;;;;;;2.72;1.60;;;;;;;;;;5071040;28;20050;-69
2022/06/15 02:35:02;;;;;;;4.25;1.95;;;;;;;;;;5071277;28;20443;-68
2022/06/15 02:37:28;;;;;;;3.15;1.88;;;;;;;;;;5071149;28;20085;-68
2022/06/15 02:39:54;;;;;;;3.38;2.17;;;;;;;;;;5054576;28;20041;-68
2022/06/15 02:42:30;;;;;;;3.50;1.92;;;;;;;;;;5054091;28;20075;-68
2022/06/15 02:44:57;;;;;;;4.60;2.15;;;;;;;;;;5070880;28;20093;-69
2022/06/15 02:47:25;;;;;;;3.65;1.90;;;;;;;;;;5071211;28;20040;-69
2022/06/15 02:49:51;;;;;;;4.60;2.40;;;;;;;;;;5074213;28;20060;-68
2022/06/15 02:52:19;;;;;;;4.53;2.10;;;;;;;;;;5057375;28;20349;-69
2022/06/15 02:54:50;;;;;;;4.18;1.88;;;;;;;;;;5074028;28;20032;-69
2022/06/15 02:57:17;;;;;;;3.22;1.63;;;;;;;;;;5074129;28;20040;-68
2022/06/15 02:59:45;;;;;;;5.00;1.77;;;;;;;;;;5057495;28;20101;-68
2022/06/15 03:02:14;;;;;;;3.00;1.67;;;;;;;;;;5073902;28;20047;-68
2022/06/15 03:04:41;;;;;;;4.13;1.98;;;;;;;;;;5074017;28;20052;-68
2022/06/15 03:07:07;;;;;;;2.28;1.55;;;;;;;;;;5074351;28;20043;-68
2022/06/15 03:09:33;;;;;;;2.55;1.40;;;;;;;;;;5074029;28;20404;-68
2022/06/15 03:11:59;;;;;;;3.78;2.40;;;;;;;;;;5074097;28;20036;-68
2022/06/15 03:14:25;;;;;;;2.53;1.60;;;;;;;;;;5057446;28;20105;-68
2022/06/15 03:16:51;;;;;;;4.13;2.00;;;;;;;;;;5075399;28;20036;-68
2022/06/15 03:19:17;;;;;;;2.95;1.98;;;;;;;;;;5077584;28;20075;-69
2022/06/15 03:21:43;;;;;;;2.42;1.50;;;;;;;;;;5077593;28;20039;-69
2022/06/15 03:24:09;;;;;;;3.05;2.00;;;;;;;;;;5060884;28;20036;-68
2022/06/15 03:26:35;;;;;;;3.72;1.70;;;;;;;;;;5077491;28;20047;-68
2022/06/15 03:29:01;;;;;;;3.28;1.75;;;;;;;;;;5077540;28;20051;-67
2022/06/15 03:31:29;;;;;;;2.92;1.63;;;;;;;;;;5060533;28;20603;-68
2022/06/15 03:33:55;;;;;;;4.18;1.85;;;;;;;;;;5077540;28;20455;-67
2022/06/15 03:36:21;;;;;;;4.90;2.03;;;;;;;;;;5077591;28;20480;-68
2022/06/15 03:38:48;;;;;;;3.42;2.22;;;;;;;;;;5077249;28;20035;-68
2022/06/15 03:41:14;;;;;;;3.10;1.80;;;;;;;;;;5060657;28;20130;-68
2022/06/15 03:43:40;;;;;;;4.13;1.90;;;;;;;;;;5077112;28;20052;-68
2022/06/15 03:46:06;;;;;;;3.00;1.80;;;;;;;;;;5076982;28;20165;-68
2022/06/15 03:48:33;;;;;;;4.70;1.95;;;;;;;;;;5076887;28;20060;-68
2022/06/15 03:50:59;;;;;;;3.22;1.92;;;;;;;;;;5076780;28;20046;-68
2022/06/15 03:53:25;;;;;;;6.95;1.92;;;;;;;;;;5060484;28;20048;-68
2022/06/15 03:55:51;;;;;;;4.57;2.10;;;;;;;;;;5076823;28;20036;-68
2022/06/15 03:58:18;;;;;;;5.60;1.90;;;;;;;;;;5076852;28;20032;-67
2022/06/15 04:00:44;;;;;;;3.03;1.88;;;;;;;;;;5076720;28;20097;-68
2022/06/15 04:03:10;;;;;;;3.00;1.73;;;;;;;;;;5077182;28;20051;-67
2022/06/15 04:05:39;;;;;;;3.40;1.88;;;;;;;;;;5060063;28;20106;-68
2022/06/15 04:10:51;;;;;;;4.93;2.03;;;;;;;;;;5076416;28;20136;-68
2022/06/15 04:13:20;;;;;;;2.35;1.40;;;;;;;;;;5060003;28;20036;-68
2022/06/15 04:15:47;;;;;;;3.33;1.77;;;;;;;;;;5076808;28;20079;-68
2022/06/15 04:18:13;;;;;;;5.30;2.30;;;;;;;;;;5059945;28;20043;-68
2022/06/15 04:20:40;;;;;;;4.32;2.22;;;;;;;;;;5060315;28;20407;-68
2022/06/15 04:23:10;;;;;;;4.57;2.33;;;;;;;;;;5076420;28;20419;-68
2022/06/15 04:25:38;;;;;;;3.95;2.10;;;;;;;;;;5076099;28;20051;-67
2022/06/15 04:28:05;;;;;;;7.05;2.22;;;;;;;;;;5076215;28;20035;-68
2022/06/15 04:30:31;;;;;;;3.47;2.30;;;;;;;;;;5076376;28;20044;-68
2022/06/15 04:32:58;;;;;;;3.25;1.75;;;;;;;;;;5076107;28;20039;-68
2022/06/15 04:35:24;;;;;;;5.82;1.95;;;;;;;;;;5075969;28;20072;-68
2022/06/15 04:37:50;;;;;;;5.63;2.72;;;;;;;;;;5076142;28;20071;-68
2022/06/15 04:40:17;;;;;;;3.35;2.10;;;;;;;;;;5075927;28;20123;-68
2022/06/15 04:42:43;;;;;;;5.68;2.67;;;;;;;;;;5075808;28;20040;-68
2022/06/15 04:45:13;;;;;;;4.18;2.42;;;;;;;;;;5076016;28;20423;-68
2022/06/15 04:47:39;;;;;;;3.07;1.80;;;;;;;;;;5075680;28;20050;-68
2022/06/15 04:50:06;;;;;;;6.53;2.28;;;;;;;;;;5075780;28;20077;-68
2022/06/15 04:52:33;;;;;;;4.55;1.85;;;;;;;;;;5075939;28;20039;-68
2022/06/15 04:54:59;;;;;;;4.50;2.25;;;;;;;;;;5075611;28;20036;-68
2022/06/15 04:57:25;;;;;;;2.80;1.60;;;;;;;;;;5075813;28;20218;-69
2022/06/15 04:59:51;;;;;;;5.68;1.70;;;;;;;;;;5075612;28;20036;-68
2022/06/15 05:02:17;;;;;;;3.45;2.35;;;;;;;;;;5075423;28;20040;-68
2022/06/15 05:04:43;;;;;;;4.03;1.73;;;;;;;;;;5075526;28;20137;-68
2022/06/15 05:07:09;;;;;;;3.80;2.47;;;12.60;99.90;;;;;;5075776;28;20050;-68
2022/06/15 05:09:35;;;;;;;3.70;2.05;;;12.70;99.90;;;;;;5042249;28;20044;-68
2022/06/15 05:12:00;;;;;;;3.58;2.05;;;12.70;99.90;;;;;;5075512;28;20043;-68
2022/06/15 05:14:26;;;;;;;3.10;1.67;;;13.30;99.90;;;;;;5075392;28;20036;-68
2022/06/15 05:16:52;;;;;;;4.22;2.30;;;13.10;99.90;;;;;;5058871;28;20044;-68
2022/06/15 05:19:18;;;;;;;5.00;2.33;;;13.10;99.90;;;;;;5075561;28;20051;-68
2022/06/15 05:21:45;;;;;;;5.43;2.17;;;13.00;99.90;;;;;;5075418;28;20040;-68
2022/06/15 05:24:11;;;;;;;3.92;1.73;;;13.10;99.90;;;;;;5058820;28;20097;-69
2022/06/15 05:26:37;;;;;;;2.80;1.67;;;13.20;99.90;;;;;;5058519;28;20070;-68
2022/06/15 05:29:04;;;;;;;3.75;2.17;;;13.20;99.90;;;;;;5058583;28;20040;-68
2022/06/15 05:31:30;;;;;;;4.28;2.30;;;13.20;99.90;;;;;;5074926;28;20071;-68
2022/06/15 05:33:57;;;;;;;3.50;1.92;;;13.40;99.90;;;;;;5058364;28;20040;-68
2022/06/15 05:36:26;;;;;;;8.68;2.03;;;13.40;99.90;;;;;;5058365;28;20436;-70
2022/06/15 05:38:52;;;;;;;3.40;2.08;;;13.50;99.90;;;;;;5092825;28;20043;-68
2022/06/15 05:41:17;;;;;;;5.60;2.55;;;13.50;99.90;;;;;;5075050;28;20058;-68
2022/06/15 05:46:18;;;;;;;4.00;2.38;;;13.70;99.90;;;;;;5074964;28;20048;-70
2022/06/15 05:48:44;;;;;;;3.70;1.92;;;13.80;99.90;;;;;;5057959;28;20127;-68
2022/06/15 05:51:10;;;;;;;3.90;2.00;;;13.90;99.90;;;;;;5074619;28;20175;-68
2022/06/15 05:53:35;;;;;;;3.38;1.92;;;14.10;99.90;;;;;;5041535;28;20186;-69
2022/06/15 05:56:01;;;;;;;6.72;2.35;;;14.00;99.90;;;;;;5075362;28;20044;-67
2022/06/15 05:58:26;;;;;;;2.88;1.95;;;14.20;99.90;;;;;;5074727;28;20146;-67
2022/06/15 06:00:52;;;;;;;3.63;1.80;;;14.30;99.90;;;;;;5074583;28;20407;-68
2022/06/15 06:03:18;;;;;;;3.28;1.80;;;14.60;99.90;;;;;;5058303;28;20040;-67
2022/06/15 06:05:43;;;;;;;2.90;1.80;;;14.80;99.90;;;;;;5058347;28;20040;-67
2022/06/15 06:08:09;;;;;;;5.45;1.73;;;15.00;99.90;;;;;;5074670;28;20040;-68
2022/06/15 06:10:35;;;;;;;2.50;1.63;;;15.00;99.90;;;;;;5057949;28;20472;-69
2022/06/15 06:13:00;;;;;;;3.10;1.60;;;15.10;99.90;;;;;;5074453;28;20503;-68
2022/06/15 06:15:26;;;;;;;4.28;1.88;;;15.20;99.90;;;;;;5074694;28;20051;-68
2022/06/15 06:17:52;;;;;;;4.03;1.90;;;15.30;99.90;;;;;;5074573;28;20028;-68
2022/06/15 06:20:18;;;;;;;3.28;1.58;;;15.90;99.90;;;;;;5057886;28;20130;-68
2022/06/15 06:22:43;;;;;;;3.67;1.67;;;15.80;99.90;;;;;;5074328;28;20032;-68
2022/06/15 06:25:10;;;;;;;5.38;2.00;;;;;;;;;;5040926;28;20488;-68
2022/06/15 06:27:36;;;;;;;5.78;1.80;;;16.00;99.90;;;;;;5074562;28;20058;-68
2022/06/15 06:30:03;;;;;;;3.00;1.80;;;16.00;99.90;;;;;;5057620;28;20035;-68
2022/06/15 06:32:29;;;;;;;4.18;1.95;;;16.10;99.90;;;;;;5074117;28;20040;-68
2022/06/15 06:34:55;;;;;;;3.45;1.67;;;16.20;99.90;;;;;;5074232;28;20115;-67
2022/06/15 06:37:21;;;;;;;4.65;1.80;;;16.40;99.90;;;;;;5074395;28;20079;-68
2022/06/15 06:39:53;;;;;;;8.07;1.95;;;16.60;99.90;;;;;;5074298;28;20403;-69
2022/06/15 06:42:19;;;;;;;2.70;1.67;;;16.90;99.90;;;;;;5057424;28;20039;-68
2022/06/15 06:44:45;;;;;;;3.85;1.80;;;16.80;99.90;;;;;;5074295;28;20403;-67
2022/06/15 06:47:10;;;;;;;3.17;1.50;;;16.70;99.90;;;;;;5057327;28;20048;-68
2022/06/15 06:49:36;;;;;;;3.63;1.58;;;16.60;99.90;;;;;;5073785;28;20461;-68
2022/06/15 06:52:03;;;;;;;2.45;0.88;;;16.30;99.90;;;;;;5077549;28;20484;-68
2022/06/15 06:54:29;;;;;;;3.38;1.75;;;16.20;99.90;;;;;;5061398;28;20040;-68
2022/06/15 06:56:55;;;;;;;2.20;1.52;;;16.20;99.90;;;;;;5061446;28;20465;-68
2022/06/15 06:59:21;;;;;;;2.75;1.90;;;16.40;99.90;;;;;;5061092;28;20048;-69
2022/06/15 07:01:48;;;;;;;5.15;2.13;;;16.40;99.90;;;;;;5077994;28;20130;-68
2022/06/15 07:04:14;;;;;;;3.15;1.95;;;16.30;99.90;;;;;;5077653;28;20040;-68
2022/06/15 07:06:41;;;;;;;2.63;1.67;;;16.40;99.90;;;;;;5060808;28;20048;-68
2022/06/15 07:09:07;;;;;;;4.32;2.17;;;16.40;99.90;;;;;;5060649;28;20039;-68
2022/06/15 07:11:33;;;;;;;4.40;1.65;;;16.60;99.90;;;;;;5077352;28;20051;-68
2022/06/15 07:13:59;;;;;;;4.05;1.80;;;16.90;99.90;;;;;;5077519;28;20040;-68
2022/06/15 07:16:25;;;;;;;5.07;1.67;;;17.20;99.90;;;;;;5061163;28;20040;-68
2022/06/15 07:18:52;;;;;;;2.60;1.60;;;17.40;99.90;;;;;;5077468;28;20043;-69
2022/06/15 07:21:21;;;;;;;4.53;1.20;;;17.70;99.90;;;;;;5060702;28;20491;-68
2022/06/15 07:23:49;;;;;;;3.17;1.25;;;17.80;99.90;;;;;;5077531;28;20044;-68
2022/06/15 07:26:19;;;;;;;3.55;2.03;;;18.00;99.90;;;;;;5060773;28;20051;-68
2022/06/15 07:28:45;;;;;;;2.88;1.60;;;18.00;99.90;;;;;;5077421;28;20135;-68
2022/06/15 07:31:23;;;;;;;1.88;1.25;;;18.20;99.90;;;;;;5077339;28;20218;-68
2022/06/15 07:33:50;;;;;;;1.98;1.33;;;18.50;99.90;;;;;;5077166;28;20381;-68
2022/06/15 07:36:15;;;;;;;2.72;1.35;;;18.70;99.90;;;;;;5060802;28;20383;-68
2022/06/15 07:38:41;;;;;;;3.60;1.38;;;18.80;99.90;;;;;;5060488;28;20127;-68
2022/06/15 07:41:07;;;;;;;2.72;1.10;;;18.90;99.90;;;;;;5077124;28;20442;-68
2022/06/15 07:43:32;;;;;;;2.58;1.52;;;19.00;99.90;;;;;;5060471;28;20043;-68
2022/06/15 07:45:58;;;;;;;1.65;1.35;;;19.20;99.90;;;;;;5077236;28;20055;-68
2022/06/15 07:51:09;;;;;;;1.65;1.17;;;19.30;99.90;;;;;;5062688;28;20048;-68
2022/06/15 07:53:35;;;;;;;3.30;1.55;;;19.40;99.90;;;;;;5077152;28;20046;-67
2022/06/15 07:56:01;;;;;;;1.65;1.02;;;19.60;99.90;;;;;;5077135;28;20039;-68
2022/06/15 07:58:27;;;;;;;1.40;1.10;;;19.70;99.90;;;;;;5060383;28;20088;-68
2022/06/15 08:00:53;;;;;;;2.22;1.40;;;19.80;99.90;;;;;;5076716;28;20040;-68
2022/06/15 08:03:19;;;;;;;2.20;1.17;;;19.80;99.90;;;;;;5075980;28;20186;-68
2022/06/15 08:05:49;;;;;;;2.10;1.23;;;19.80;99.90;;;;;;5076535;28;20039;-69
2022/06/15 08:08:21;;;;;;;1.90;1.20;;;19.90;99.90;;;;;;5076684;28;20048;-68
2022/06/15 08:10:48;;;;;;;1.65;1.15;;;20.00;99.90;;;;;;5076576;28;20075;-68
2022/06/15 08:13:14;;;;;;;2.55;1.45;;;19.90;99.90;;;;;;5076437;28;20086;-68
2022/06/15 08:15:41;;;;;;;1.33;1.15;;;20.00;99.90;;;;;;5043393;28;20036;-68
2022/06/15 08:18:15;;;;;;;2.75;1.25;;;19.90;99.90;;;;;;5076285;28;20036;-68
2022/06/15 08:20:49;;;;;;;2.65;1.40;;;20.10;99.90;;;;;;5076134;28;20043;-68
2022/06/15 08:23:17;;;;;;;1.85;1.23;;;20.20;99.90;;;;;;5076036;28;20055;-67
2022/06/15 08:25:47;;;;;;;3.60;1.20;;;20.10;99.90;;;;;;5076231;28;20502;-68
2022/06/15 08:28:18;;;;;;;1.55;1.10;;;20.20;99.90;;;;;;5059376;28;20044;-69
2022/06/15 08:30:43;;;;;;;4.75;1.13;;;20.20;99.90;;;;;;5076297;28;20044;-68
2022/06/15 08:33:10;;;;;;;5.57;1.45;;;20.30;99.90;;;;;;5075882;28;20055;-68
2022/06/15 08:35:36;;;;;;;3.20;1.15;;;20.40;99.90;;;;;;5075883;28;20036;-68
2022/06/15 08:38:08;;;;;;;2.35;1.27;;;20.40;99.90;;;;;;5059756;28;20039;-68
2022/06/15 08:40:41;;;;;;;2.83;1.30;;;20.50;99.90;;;;;;5076088;28;20047;-68
2022/06/15 08:43:23;;;;;;;3.88;1.15;;;20.40;99.90;;;;;;5075974;28;20051;-68
2022/06/15 08:45:53;;;;;;;2.00;1.33;;;20.50;99.90;;;;;;5075803;28;20087;-69
2022/06/15 08:48:32;;;;;;;3.70;1.30;;;20.50;99.90;;;;;;5075459;28;20210;-69
2022/06/15 08:51:06;;;;;;;3.10;0.93;;;20.40;99.90;;;;;;5075556;28;20499;-68
2022/06/15 08:54:04;;;;;;;2.33;1.15;;;20.50;99.90;;;;;;5075833;28;20044;-68
2022/06/15 08:56:38;;;;;;;1.98;0.90;;;20.30;99.90;;;;;;5045759;28;20145;-68
2022/06/15 08:59:07;;;;;;;4.00;0.90;;;20.10;99.90;;;;;;5075453;28;20136;-68
2022/06/15 09:01:36;;;;;;;2.33;1.08;;;19.90;99.90;;;;;;5075896;28;20097;-68
2022/06/15 09:04:20;;;;;;;1.15;0.82;;;19.80;99.90;;;;;;5075579;28;20077;-68
2022/06/15 09:06:57;;;;;;;2.03;1.10;;;19.70;99.90;;;;;;5075158;28;20047;-68
2022/06/15 09:10:01;;;;;;;2.88;0.90;;;19.80;99.90;;;;;;5075569;28;20484;-68
2022/06/15 09:12:58;;;;;;;2.10;0.98;;;20.10;99.90;;;;;;5061986;28;20052;-67
2022/06/15 09:15:45;;;;;;;1.38;0.85;;;20.40;99.90;;;;;;5074579;28;20491;-68
2022/06/15 09:18:32;;;;;;;2.00;0.90;;;20.70;99.90;;;;;;5058833;28;20085;-68
2022/06/15 09:21:09;;;;;;;1.40;0.60;;;20.90;99.90;;;;;;5075225;28;20047;-68
2022/06/15 09:23:51;;;;;;;0.93;0.70;;;20.70;99.90;;;;;;5074977;28;20131;-68
2022/06/15 09:26:23;;;;;;;1.33;0.85;;;20.50;99.90;;;;;;5075147;28;20051;-68
2022/06/15 09:29:17;;;;;;;3.13;0.90;;;20.20;99.90;;;;;;5074950;28;20036;-68
2022/06/15 09:31:46;;;;;;;0.98;0.73;;;20.30;99.90;;;;;;5062674;28;20048;-68
2022/06/15 09:34:18;;;;;;;1.23;0.85;;;20.50;99.90;;;;;;5074689;28;20055;-69
2022/06/15 09:36:51;;;;;;;0.85;0.60;;;20.60;99.90;;;;;;5074770;28;20082;-68
2022/06/15 09:39:18;;;;;;;1.75;0.77;;;20.40;99.90;;;;;;5074728;28;20123;-68
2022/06/15 09:42:00;;;;;;;1.58;0.70;;;20.20;99.90;;;;;;5058083;28;20044;-68
2022/06/15 09:44:47;;;;;;;1.15;0.80;;;20.00;99.90;;;;;;5074630;28;20047;-69
2022/06/15 09:47:20;;;;;;;1.63;0.70;;;20.30;99.90;;;;;;5074726;28;20040;-68
2022/06/15 09:49:59;;;;;;;2.42;0.68;;;20.50;99.90;;;;;;5074654;28;20396;-68
2022/06/15 09:52:46;;;;;;;2.80;0.75;;;20.60;99.90;;;;;;5057762;28;20395;-69
2022/06/15 09:55:30;;;;;;;1.20;0.75;;;20.70;99.90;;;;;;5074823;28;20092;-69
2022/06/15 09:57:57;;;;;;;1.05;0.60;;;20.90;99.90;;;;;;5074545;28;20039;-68
2022/06/15 10:00:23;;;;;;;3.25;0.68;;;21.20;99.90;;;;;;5074450;28;20040;-68
2022/06/15 10:03:01;;;;;;;1.65;0.70;;;21.40;99.90;;;;;;5074757;28;20360;-69
2022/06/15 10:05:32;;;;;;;1.42;0.90;;;21.50;99.90;;;;;;5074408;28;20074;-69
2022/06/15 10:07:59;;;;;;;;;;;21.50;99.90;;;;;;5074792;28;20047;-68
2022/06/15 10:10:29;;;;;;;1.50;0.70;;;21.40;99.90;;;;;;5074225;28;19916;-69
2022/06/15 10:13:04;;;;;;;0.90;0.40;;;21.50;99.90;;;;;;5074336;28;20454;-68
2022/06/15 10:15:52;;;;;;;1.20;0.75;;;21.70;99.90;;;;;;5074632;28;20514;-68
2022/06/15 10:18:21;;;;;;;0.50;0.47;;;21.80;99.90;;;;;;5074245;28;20075;-67
2022/06/15 10:21:13;;;;;;;0.47;0.40;;;21.90;99.90;;;;;;5057762;28;20044;-68
2022/06/15 10:23:49;;;;;;;2.25;0.93;;;21.80;99.90;;;;;;5069477;28;20048;-67
2022/06/15 10:26:32;;;;;;;1.77;0.80;;;21.60;99.90;;;;;;5076961;28;20048;-66
2022/06/15 10:29:24;;;;;;;1.17;0.68;;;21.60;99.90;;;;;;5078312;28;20097;-68
2022/06/15 10:32:05;;;;;;;2.40;0.80;;;21.60;99.90;;;;;;5060761;28;20105;-68
2022/06/15 10:34:50;;;;;;;1.30;0.88;;;21.60;99.90;;;;;;5078410;28;20097;-68
2022/06/15 10:37:28;;;;;;;0.82;0.60;;;21.20;99.90;;;;;;5078482;28;20454;-69
2022/06/15 10:40:01;;;;;;;1.40;0.85;;;21.20;99.90;;;;;;5077876;28;20090;-69
2022/06/15 10:42:42;;;;;;;1.83;0.95;;;20.90;99.90;;;;;;5061635;28;20082;-69
2022/06/15 10:45:25;;;;;;;1.88;0.88;;;20.60;99.90;;;;;;5078044;28;20044;-68
2022/06/15 10:47:53;;;;;;;1.05;0.80;;;20.30;99.90;;;;;;5078147;28;20496;-68
2022/06/15 10:50:29;;;;;;;1.48;0.68;;;20.20;99.90;;;;;;5077760;28;20052;-68
2022/06/15 10:53:04;;;;;;;3.08;1.10;;;20.30;99.90;;;;;;5078030;28;20047;-67
2022/06/15 11:02:07;;;;;;;0.93;0.68;;;20.90;99.90;;;;;;5077430;28;20052;-68
2022/06/15 11:04:45;;;;;;;1.52;0.88;;;21.20;99.90;;;;;;5077703;28;20047;-68
2022/06/15 11:07:22;;;;;;;1.00;0.70;;;21.50;99.90;;;;;;5077729;28;20069;-67
2022/06/15 11:09:54;;;;;;;1.27;0.65;;;21.40;99.90;;;;;;5077848;28;20476;-67
2022/06/15 11:12:30;;;;;;;2.03;0.80;;;21.40;99.90;;;;;;5077398;28;20040;-68
2022/06/15 11:15:14;;;;;;;1.00;0.73;;;21.50;99.90;;;;;;5077376;28;20040;-69
2022/06/15 11:18:06;;;;;;;1.38;0.80;;;21.50;99.90;;;;;;5077393;28;20123;-68
2022/06/15 11:20:50;;;;;;;0.70;0.60;;;21.50;99.90;;;;;;5060989;28;20040;-67
2022/06/15 11:23:38;;;;;;;1.83;0.70;;;21.50;99.90;;;;;;5077151;28;20104;-68
2022/06/15 11:29:21;;;;;;;2.95;0.60;;;21.40;99.90;;;;;;5077407;28;20110;-68
2022/06/15 11:31:48;;;;;;;1.58;0.75;;;21.50;99.90;;;;;;5077153;28;20493;-67
2022/06/15 11:34:21;;;;;;;2.05;0.82;;;21.60;99.90;;;;;;5077189;28;20067;-68
2022/06/15 11:37:05;;;;;;;1.33;0.80;;;21.70;99.90;;;;;;5076431;28;20350;-68
2022/06/15 11:39:41;;;;;;;0.90;0.75;;;21.70;99.90;;;;;;5077270;28;20541;-68
2022/06/15 11:42:12;;;;;;;1.25;0.80;;;21.60;99.90;;;;;;5076788;28;20112;-67
2022/06/15 11:44:42;;;;;;;0.90;0.55;;;21.60;99.90;;;;;;5060235;28;20455;-68
2022/06/15 11:47:58;;;;;;;1.73;0.73;;;21.60;99.90;;;;;;5076851;28;20066;-69
2022/06/15 11:50:43;;;;;;;2.80;0.57;;;21.80;99.90;;;;;;5022348;28;20079;-68
2022/06/15 11:53:12;;;;;;;0.73;0.50;;;21.90;99.90;;;;;;5076793;28;20044;-68
2022/06/15 11:55:57;;;;;;;1.77;0.75;;;22.10;99.90;;;;;;5076561;28;20044;-67
2022/06/15 11:58:34;;;;;;;1.35;0.50;;;22.10;99.90;;;;;;5060077;28;20047;-68
2022/06/15 12:01:08;;;;;;;1.50;0.73;;;22.10;99.90;;;;;;5076451;28;20079;-68
2022/06/15 12:04:07;;;;;;;3.30;0.70;;;21.90;99.90;;;;;;5094682;28;20047;-69
2022/06/15 12:07:00;;;;;;;1.10;0.70;;;21.80;99.90;;;;;;5076587;28;20062;-69
2022/06/15 12:10:11;;;;;;;2.42;0.93;;;21.60;99.90;;;;;;5076557;28;20040;-68
2022/06/15 12:12:46;;;;;;;1.15;0.70;;;21.50;99.90;;;;;;5071498;28;20048;-68
2022/06/15 12:15:18;;;;;;;1.42;0.90;;;21.60;99.90;;;;;;5060024;28;20500;-70
2022/06/15 12:17:51;;;;;;;1.95;1.00;;;21.70;99.90;;;;;;5076624;28;20087;-68
2022/06/15 12:20:49;;;;;;;2.17;1.00;;;21.90;99.90;;;;;;5076241;28;20044;-67
2022/06/15 12:23:35;;;;;;;1.77;0.82;;;21.90;99.90;;;;;;5060020;28;20044;-68
2022/06/15 12:26:13;;;;;;;2.65;0.82;;;21.90;99.90;;;;;;5026224;28;20044;-68
2022/06/15 12:28:50;;;;;;;1.67;0.85;;;22.00;99.90;;;;;;5076342;28;20122;-68
2022/06/15 12:31:39;;;;;;;2.08;1.00;;;22.20;99.90;;;;;;5076040;28;20395;-68
2022/06/15 12:34:46;;;;;;;0.95;0.85;;;22.20;99.90;;;;;;5059594;28;20036;-68
2022/06/15 12:37:36;;;;;;;1.50;0.90;;;22.40;99.90;;;;;;5040436;28;20048;-69
2022/06/15 12:40:08;;;;;;;1.40;0.77;;;22.40;99.90;;;;;;5059275;28;20039;-68
2022/06/15 12:42:34;;;;;;;1.02;0.90;;;22.50;99.90;;;;;;5059249;28;20066;-69
2022/06/15 12:45:24;;;;;;;4.28;1.30;;;22.60;99.90;;;;;;5042827;28;20036;-68
2022/06/15 12:47:54;;;;;;;1.75;1.13;;;22.60;99.90;;;;;;5075613;28;20132;-68
2022/06/15 12:50:35;;;;;;;1.42;0.95;;;22.20;99.90;;;;;;5058996;28;20102;-68
2022/06/15 12:53:03;;;;;;;;;;;22.00;99.90;;;;;;5076035;28;20048;-68
2022/06/15 12:55:38;;;;;;;5.45;1.10;;;22.10;99.90;;;;;;5075973;28;19916;-69
2022/06/15 12:58:26;;;;;;;1.00;0.77;;;22.20;99.90;;;;;;5075539;28;20055;-68
2022/06/15 13:01:00;;;;;;;1.60;0.82;;;22.40;99.90;;;;;;5075368;28;20052;-67
2022/06/15 13:03:48;;;;;;;1.95;0.90;;;22.40;99.90;;;;;;5059177;28;20039;-68
2022/06/15 13:06:28;;;;;;;1.48;1.00;;;22.10;99.90;;;;;;5075443;28;20044;-68
2022/06/15 13:09:20;;;;;;;2.03;0.95;;;21.90;99.90;;;;;;5075496;28;20039;-68
2022/06/15 13:12:00;;;;;;;1.58;0.93;;;21.80;99.90;;;;;;5062408;28;20131;-68
2022/06/15 13:14:35;;;;;;;1.65;1.05;;;21.70;99.90;;;;;;5058795;28;20180;-67
2022/06/15 13:17:17;;;;;;;2.25;0.95;;;21.60;99.90;;;;;;5058671;28;20067;-68
2022/06/15 13:19:48;;;;;;;1.63;1.25;;;21.90;99.90;;;;;;5075242;28;20081;-68
2022/06/15 13:22:25;;;;;;;2.67;0.98;;;22.20;99.90;;;;;;5075513;28;20403;-68
2022/06/15 13:25:05;;;;;;;1.23;0.88;;;22.30;99.90;;;;;;5074900;28;20040;-68
2022/06/15 13:27:35;;;;;;;2.20;1.15;;;22.50;99.90;;;;;;5075362;28;20063;-68
2022/06/15 13:30:26;;;;;;;1.73;1.00;;;22.40;99.90;;;;;;5058399;28;20131;-69
2022/06/15 13:32:54;;;;;;;1.83;1.20;;;22.20;99.90;;;;;;5074973;28;20052;-68
2022/06/15 13:35:33;;;;;;;2.25;1.00;;;22.10;99.90;;;;;;5074894;28;20040;-68
2022/06/15 13:38:02;;;;;;;1.77;1.23;;;22.00;99.90;;;;;;5075200;28;20032;-68
2022/06/15 13:41:20;;;;;;;1.23;0.93;;;22.10;99.90;;;;;;5058370;28;20067;-67
2022/06/15 13:43:49;;;;;;;1.95;0.90;;;22.30;99.90;;;;;;4975056;28;20042;-68
2022/06/15 13:46:25;;;;;;;1.48;1.23;;;22.30;99.90;;;;;;4975072;28;20152;-66
2022/06/15 13:48:54;;;;;;;1.92;0.95;;;22.30;99.90;;;;;;5057259;28;20123;-67
2022/06/15 13:51:29;;;;;;;1.52;1.02;;;22.20;99.90;;;;;;5074791;28;20036;-67
2022/06/15 13:54:07;;;;;;;3.80;0.98;;;22.20;99.90;;;;;;5074903;28;20036;-67
2022/06/15 13:56:56;;;;;;;1.98;1.10;;;22.30;99.90;;;;;;5074748;28;20036;-68
2022/06/15 13:59:28;;;;;;;1.50;0.95;;;22.30;99.90;;;;;;5061529;28;20143;-67
2022/06/15 14:01:53;;;;;;;2.97;1.45;;;22.30;99.90;;;;;;5074348;28;20044;-68